Time;durP1;ratioP1;P1;durP2;ratioP2;P2;SDS_P1;SDS_P2;PMS_P1;PMS_P2;Temp;Humidity;BMP_temperature;BMP_pressure;BME280_temperature;BME280_humidity;BME280_pressure;Samples;Min_cycle;Max_cycle;Signal;HPM_P1;HPM_P2
2022/02/08 00:02:02;;;;;;;;;;;4.60;99.90;;;;;;4988839;28;19917;-73
2022/02/08 00:04:30;;;;;;;;;;;4.50;99.90;;;;;;4983995;28;19949;-73
2022/02/08 00:06:57;;;;;;;;;;;4.50;99.90;;;;;;4985618;28;20376;-74
2022/02/08 00:09:24;;;;;;;;;;;4.60;99.90;;;;;;4988525;28;20371;-74
2022/02/08 00:11:50;;;;;;;;;;;4.60;99.90;;;;;;4984212;28;19906;-74
2022/02/08 00:14:15;;;;;;;;;;;4.60;99.90;;;;;;4991252;28;19960;-74
2022/02/08 00:16:41;;;;;;;;;;;4.60;99.90;;;;;;4989771;28;19905;-74
2022/02/08 00:19:07;;;;;;;;;;;4.60;99.90;;;;;;4977151;28;20426;-73
2022/02/08 00:21:32;;;;;;;;;;;4.60;99.90;;;;;;4998644;28;19912;-73
2022/02/08 00:23:59;;;;;;;;;;;4.60;99.90;;;;;;5004983;28;19948;-73
2022/02/08 00:26:24;;;;;;;;;;;4.60;99.90;;;;;;4986174;28;19960;-73
2022/02/08 00:28:50;;;;;;;;;;;4.50;99.90;;;;;;4984520;28;19933;-73
2022/02/08 00:31:16;;;;;;;;;;;4.60;99.90;;;;;;4990495;28;19989;-73
2022/02/08 00:33:41;;;;;;;;;;;4.50;99.90;;;;;;4992317;28;19917;-73
2022/02/08 00:36:07;;;;;;;;;;;4.50;99.90;;;;;;4978455;28;19906;-74
2022/02/08 00:38:34;;;;;;;;;;;4.50;99.90;;;;;;4970971;28;19912;-74
2022/02/08 00:41:01;;;;;;;;;;;4.50;99.90;;;;;;4988111;28;19905;-73
2022/02/08 00:43:32;;;;;;;;;;;4.50;99.90;;;;;;4979814;28;19914;-73
2022/02/08 00:46:04;;;;;;;;;;;4.50;99.90;;;;;;4988816;28;19932;-74
2022/02/08 00:48:37;;;;;;;;;;;4.50;99.90;;;;;;4984624;28;19909;-74
2022/02/08 00:51:03;;;;;;;;;;;4.60;99.90;;;;;;4991243;28;19913;-74
2022/02/08 00:53:29;;;;;;;;;;;4.60;99.90;;;;;;4981442;28;20108;-74
2022/02/08 00:55:55;;;;;;;;;;;4.60;99.90;;;;;;4986471;28;20395;-74
2022/02/08 00:58:20;;;;;;;;;;;4.60;99.90;;;;;;5003575;28;19918;-74
2022/02/08 01:00:46;;;;;;;;;;;4.60;99.90;;;;;;4985355;28;19997;-75
2022/02/08 01:03:12;;;;;;;;;;;4.60;99.90;;;;;;4983687;28;20545;-73
2022/02/08 01:05:43;;;;;;;;;;;4.60;99.90;;;;;;4989969;28;19914;-74
2022/02/08 01:08:09;;;;;;;;;;;4.60;99.90;;;;;;4987088;28;19909;-74
2022/02/08 01:10:38;;;;;;;;;;;4.50;99.90;;;;;;4982536;28;20004;-74
2022/02/08 01:13:04;;;;;;;;;;;4.60;99.90;;;;;;4988606;28;19914;-74
2022/02/08 01:15:30;;;;;;;;;;;4.60;99.90;;;;;;4983698;28;19910;-74
2022/02/08 01:17:57;;;;;;;;;;;4.60;99.90;;;;;;4986055;28;20265;-74
2022/02/08 01:20:31;;;;;;;;;;;4.60;99.90;;;;;;4983407;28;20279;-74
2022/02/08 01:22:58;;;;;;;;;;;4.60;99.90;;;;;;4979192;28;19910;-74
2022/02/08 01:25:31;;;;;;;;;;;4.60;99.90;;;;;;4983828;28;19914;-74
2022/02/08 01:28:05;;;;;;;;;;;4.60;99.90;;;;;;4982650;28;20411;-74
2022/02/08 01:30:44;;;;;;;;;;;4.60;99.90;;;;;;4984548;28;19924;-74
2022/02/08 01:33:36;;;;;;;;;;;4.60;99.90;;;;;;4988591;28;19917;-74
2022/02/08 01:38:35;;;;;;;;;;;4.60;99.90;;;;;;4986357;28;19914;-74
2022/02/08 01:46:11;;;;;;;;;;;4.60;99.90;;;;;;4990587;28;19916;-74
2022/02/08 01:51:06;;;;;;;;;;;4.60;99.90;;;;;;4986323;28;20347;-73
2022/02/08 01:53:33;;;;;;;;;;;4.60;99.90;;;;;;4984532;28;19914;-74
2022/02/08 01:55:59;;;;;;;;;;;4.60;99.90;;;;;;4979798;28;20448;-75
2022/02/08 01:58:24;;;;;;;;;;;4.60;99.90;;;;;;4972104;28;19910;-74
2022/02/08 02:00:50;;;;;;;;;;;4.60;99.90;;;;;;4986026;28;19949;-74
2022/02/08 02:03:16;;;;;;;;;;;4.60;99.90;;;;;;4987348;28;19910;-74
2022/02/08 02:05:41;;;;;;;;;;;4.60;99.90;;;;;;4984885;28;19921;-75
2022/02/08 02:08:07;;;;;;;;;;;4.60;99.90;;;;;;4962205;28;19961;-72
2022/02/08 02:10:33;;;;;;;;;;;4.60;99.90;;;;;;4985092;28;19924;-72
2022/02/08 02:13:00;;;;;;;;;;;4.60;99.90;;;;;;4984249;28;19917;-73
2022/02/08 02:15:26;;;;;;;;;;;4.60;99.90;;;;;;4988030;28;20287;-72
2022/02/08 02:17:52;;;;;;;;;;;4.60;99.90;;;;;;4983616;28;19910;-72
2022/02/08 02:20:18;;;;;;;;;;;4.60;99.90;;;;;;4969594;28;19913;-72
2022/02/08 02:22:43;;;;;;;;;;;4.60;99.90;;;;;;4968050;28;19909;-72
2022/02/08 02:25:19;;;;;;;;;;;4.60;99.90;;;;;;4985270;28;19906;-74
2022/02/08 02:27:45;;;;;;;;;;;4.60;99.90;;;;;;4969302;28;19918;-74
2022/02/08 02:30:11;;;;;;;;;;;4.50;99.90;;;;;;4984649;28;19922;-74
2022/02/08 02:32:39;;;;;;;;;;;4.50;99.90;;;;;;4988784;28;19916;-73
2022/02/08 02:35:05;;;;;;;;;;;4.50;99.90;;;;;;4990881;28;19910;-74
2022/02/08 02:37:31;;;;;;;;;;;4.50;99.90;;;;;;4988095;28;19976;-74
2022/02/08 02:39:56;;;;;;;;;;;4.50;99.90;;;;;;4987235;28;20407;-75
2022/02/08 02:42:22;;;;;;;;;;;4.50;99.90;;;;;;4990462;28;19914;-73
2022/02/08 02:44:48;;;;;;;;;;;4.50;99.90;;;;;;4991461;28;19948;-73
2022/02/08 02:47:14;;;;;;;;;;;4.50;99.90;;;;;;4988370;28;19909;-73
2022/02/08 02:49:39;;;;;;;;;;;4.50;99.90;;;;;;4986147;28;19924;-73
2022/02/08 02:52:07;;;;;;;;;;;4.50;99.90;;;;;;4990002;28;20414;-73
2022/02/08 02:54:33;;;;;;;;;;;4.50;99.90;;;;;;4991395;28;19909;-73
2022/02/08 02:57:00;;;;;;;;;;;4.50;99.90;;;;;;4983365;28;19955;-73
2022/02/08 02:59:26;;;;;;;;;;;4.50;99.90;;;;;;4990664;28;20004;-74
2022/02/08 03:20:47;;;;;;;;;;;4.80;99.90;;;;;;4983761;28;20691;-74
2022/02/08 03:23:14;;;;;;;;;;;4.80;99.90;;;;;;4989811;28;19976;-74
2022/02/08 03:25:40;;;;;;;;;;;4.80;99.90;;;;;;4990086;28;19917;-74
2022/02/08 03:28:06;;;;;;;;;;;4.80;99.90;;;;;;4996256;28;19914;-73
2022/02/08 03:30:32;;;;;;;;;;;4.80;99.90;;;;;;4985895;28;20398;-74
2022/02/08 03:32:58;;;;;;;;;;;4.90;99.90;;;;;;4984149;28;19936;-73
2022/02/08 03:35:23;;;;;;;;;;;4.90;99.90;;;;;;4986978;28;20264;-74
2022/02/08 03:37:57;;;;;;;;;;;4.90;99.90;;;;;;4990038;28;19910;-74
2022/02/08 03:40:37;;;;;;;;;;;5.00;99.90;;;;;;4991873;28;19910;-74
2022/02/08 03:43:27;;;;;;;;;;;5.00;99.90;;;;;;4990344;28;19914;-75
2022/02/08 03:45:55;;;;;;;;;;;5.00;99.90;;;;;;4984884;28;19914;-74
2022/02/08 03:48:23;;;;;;;;;;;5.00;99.90;;;;;;4988733;28;20056;-73
2022/02/08 03:50:54;;;;;;;;;;;5.10;99.90;;;;;;4988254;28;19936;-73
2022/02/08 03:53:21;;;;;;;;;;;5.10;99.90;;;;;;4987733;28;20451;-74
2022/02/08 03:55:47;;;;;;;;;;;5.10;99.90;;;;;;4989779;28;19975;-74
2022/02/08 03:58:12;;;;;;;;;;;5.10;99.90;;;;;;4985369;28;19909;-73
2022/02/08 04:00:58;;;;;;;;;;;5.20;99.90;;;;;;4986173;28;20244;-73
2022/02/08 04:03:27;;;;;;;;;;;5.20;99.90;;;;;;5005617;28;19910;-73
2022/02/08 04:05:55;;;;;;;;;;;5.30;99.90;;;;;;4980612;28;19992;-74
2022/02/08 04:08:21;;;;;;;;;;;5.20;99.90;;;;;;4980345;28;19914;-75
2022/02/08 04:10:46;;;;;;;;;;;5.30;99.90;;;;;;4982047;28;19922;-73
2022/02/08 04:13:18;;;;;;;;;;;5.30;99.90;;;;;;4983734;28;19952;-74
2022/02/08 04:16:02;;;;;;;;;;;5.30;99.90;;;;;;4988767;28;19909;-73
2022/02/08 04:18:50;;;;;;;;;;;5.40;99.90;;;;;;4988156;28;19910;-73
2022/02/08 04:32:20;;;;;;;;;;;5.50;99.90;;;;;;4986440;28;20005;-74
2022/02/08 04:37:53;;;;;;;;;;;5.50;99.90;;;;;;4946119;28;19906;-73
2022/02/08 04:40:50;;;;;;;;;;;5.60;99.90;;;;;;4983827;28;20415;-73
2022/02/08 04:43:44;;;;;;;;;;;5.60;99.90;;;;;;4984208;28;19988;-74
2022/02/08 04:46:44;;;;;;;;;;;5.60;99.90;;;;;;4982732;28;19936;-74
2022/02/08 04:49:02;;;;;;;;;;;5.60;99.90;;;;;;4982659;28;20378;-73
2022/02/08 04:51:40;;;;;;;;;;;5.60;99.90;;;;;;4986693;28;19993;-73
2022/02/08 05:42:43;;;;;;;;;;;6.20;99.90;;;;;;4984085;28;20382;-73
2022/02/08 05:47:45;;;;;;;;;;;6.20;99.90;;;;;;4983876;28;19945;-74
2022/02/08 05:50:59;;;;;;;;;;;6.20;99.90;;;;;;4982629;28;20159;-73
2022/02/08 05:55:26;;;;;;;;;;;6.30;99.90;;;;;;4987524;28;19909;-73
2022/02/08 05:57:52;;;;;;;;;;;6.30;99.90;;;;;;4981476;28;19917;-73
2022/02/08 06:00:24;;;;;;;;;;;6.30;99.90;;;;;;4963329;28;20549;-73
2022/02/08 06:02:50;;;;;;;;;;;6.30;99.90;;;;;;4981426;28;20399;-74
2022/02/08 06:05:18;;;;;;;;;;;6.30;99.90;;;;;;4984793;28;19987;-72
2022/02/08 06:07:44;;;;;;;;;;;6.30;99.90;;;;;;4984352;28;19910;-72
2022/02/08 06:10:10;;;;;;;;;;;6.30;99.90;;;;;;4986325;28;19913;-74
2022/02/08 06:12:47;;;;;;;;;;;6.40;99.90;;;;;;4981718;28;19936;-75
2022/02/08 06:15:18;;;;;;;;;;;6.40;99.90;;;;;;4987420;28;19960;-73
2022/02/08 06:17:44;;;;;;;;;;;6.40;99.90;;;;;;4981903;28;19910;-73
2022/02/08 06:20:10;;;;;;;;;;;6.30;99.90;;;;;;4983607;28;19914;-74
2022/02/08 06:22:36;;;;;;;;;;;6.40;99.90;;;;;;4983356;28;19968;-75
2022/02/08 06:25:03;;;;;;;;;;;6.40;99.90;;;;;;4981370;28;20334;-75
2022/02/08 06:27:30;;;;;;;;;;;6.40;99.90;;;;;;4986591;28;19918;-75
2022/02/08 06:29:57;;;;;;;;;;;6.40;99.90;;;;;;4981432;28;19922;-74
2022/02/08 06:32:23;;;;;;;;;;;6.40;99.90;;;;;;4987745;28;20631;-74
2022/02/08 06:34:48;;;;;;;;;;;6.40;99.90;;;;;;4981487;28;20000;-75
2022/02/08 06:37:17;;;;;;;;;;;6.50;99.90;;;;;;4981987;28;19935;-74
2022/02/08 06:39:42;;;;;;;;;;;6.50;99.90;;;;;;4989799;28;19910;-74
2022/02/08 06:42:09;;;;;;;;;;;6.50;99.90;;;;;;4986411;28;20379;-74
2022/02/08 06:44:35;;;;;;;;;;;6.60;99.90;;;;;;4985026;28;19910;-74
2022/02/08 06:47:01;;;;;;;;;;;6.50;99.90;;;;;;4984301;28;19918;-74
2022/02/08 06:49:27;;;;;;;;;;;6.50;99.90;;;;;;4985064;28;20004;-75
2022/02/08 06:51:52;;;;;;;;;;;6.50;99.90;;;;;;4985631;28;20283;-74
2022/02/08 06:54:18;;;;;;;;;;;6.50;99.90;;;;;;4985054;28;19921;-75
2022/02/08 06:56:43;;;;;;;;;;;6.60;99.90;;;;;;4985020;28;19910;-74
2022/02/08 06:59:11;;;;;;;;;;;6.60;99.90;;;;;;4982225;28;19913;-75
2022/02/08 07:01:37;;;;;;;;;;;6.60;99.90;;;;;;4985312;28;20264;-75
2022/02/08 07:04:05;;;;;;;;;;;6.70;99.90;;;;;;4982278;28;19936;-74
2022/02/08 07:06:31;;;;;;;;;;;6.70;99.90;;;;;;4982979;28;20017;-74
2022/02/08 07:08:56;;;;;;;;;;;6.70;99.90;;;;;;4983192;28;19943;-75
2022/02/08 07:11:22;;;;;;;;;;;6.70;99.90;;;;;;4981979;28;19919;-73
2022/02/08 07:13:49;;;;;;;;;;;6.70;99.90;;;;;;4990564;28;20360;-73
2022/02/08 07:16:15;;;;;;;;;;;6.70;99.90;;;;;;4986209;28;19948;-73
2022/02/08 07:18:40;;;;;;;;;;;6.70;99.90;;;;;;4995301;28;21942;-73
2022/02/08 07:21:06;;;;;;;;;;;6.70;99.90;;;;;;4990479;28;19912;-73
2022/02/08 07:23:32;;;;;;;;;;;6.80;99.90;;;;;;4991116;28;19969;-73
2022/02/08 07:25:58;;;;;;;;;;;6.80;99.90;;;;;;4968499;28;19913;-74
2022/02/08 07:28:24;;;;;;;;;;;6.90;99.90;;;;;;4989499;28;19961;-73
2022/02/08 07:30:56;;;;;;;;;;;6.90;99.90;;;;;;4989728;28;19958;-74
2022/02/08 07:33:22;;;;;;;;;;;6.90;99.90;;;;;;4975460;28;20379;-74
2022/02/08 07:35:55;;;;;;;;;;;6.90;99.90;;;;;;4989761;28;19952;-73
2022/02/08 07:38:29;;;;;;;;;;;6.90;99.90;;;;;;4984530;28;20363;-74
2022/02/08 07:43:21;;;;;;;;;;;6.90;99.90;;;;;;4987834;28;20589;-73
2022/02/08 07:45:46;;;;;;;;;;;6.90;99.90;;;;;;4987358;28;19932;-74
2022/02/08 07:48:12;;;;;;;;;;;6.90;99.90;;;;;;4990283;28;20378;-74
2022/02/08 07:50:40;;;;;;;;;;;6.90;99.90;;;;;;4986110;28;19981;-73
2022/02/08 07:53:09;;;;;;;;;;;7.00;99.90;;;;;;4983927;28;20303;-74
2022/02/08 07:55:34;;;;;;;;;;;7.00;99.90;;;;;;4986222;28;19917;-74
2022/02/08 07:58:00;;;;;;;;;;;7.00;99.90;;;;;;4981798;28;19920;-75
2022/02/08 08:00:25;;;;;;;;;;;7.00;99.90;;;;;;4985486;28;20368;-74
2022/02/08 08:02:53;;;;;;;;;;;7.00;99.90;;;;;;4995779;28;20379;-74
2022/02/08 08:05:19;;;;;;;;;;;7.10;99.90;;;;;;4983249;28;19917;-75
2022/02/08 08:07:45;;;;;;;;;;;7.10;99.90;;;;;;4989950;28;19910;-74
2022/02/08 08:10:17;;;;;;;;;;;7.10;99.90;;;;;;4986335;28;19918;-76
2022/02/08 08:12:47;;;;;;;;;;;7.20;99.90;;;;;;4982616;28;20443;-74
2022/02/08 08:15:27;;;;;;;;;;;7.30;99.90;;;;;;4988002;28;19909;-74
2022/02/08 08:18:00;;;;;;;;;;;7.30;99.90;;;;;;4983900;28;19933;-74
2022/02/08 08:20:26;;;;;;;;;;;7.30;99.90;;;;;;4998544;28;19928;-74
2022/02/08 08:22:51;;;;;;;;;;;7.30;99.90;;;;;;4986427;28;20567;-75
2022/02/08 08:25:17;;;;;;;;;;;7.40;99.90;;;;;;4985779;28;19912;-75
2022/02/08 08:27:43;;;;;;;;;;;7.40;99.90;;;;;;4983551;28;19910;-75
2022/02/08 08:30:09;;;;;;;;;;;7.40;99.90;;;;;;4983980;28;19910;-75
2022/02/08 08:32:39;;;;;;;;;;;7.40;99.90;;;;;;4982789;28;19914;-75
2022/02/08 08:35:08;;;;;;;;;;;7.50;99.90;;;;;;4983526;28;19913;-75
2022/02/08 08:37:39;;;;;;;;;;;7.50;99.90;;;;;;4987869;28;19906;-74
2022/02/08 08:40:15;;;;;;;;;;;7.50;99.90;;;;;;4995453;28;19917;-72
2022/02/08 08:42:52;;;;;;;;;;;7.50;99.90;;;;;;4985342;28;19957;-73
2022/02/08 08:51:39;;;;;;;;;;;7.60;99.90;;;;;;4985251;28;19913;-74
2022/02/08 08:53:40;;;;;;;;;;;7.60;99.90;;;;;;4981989;28;19998;-74
2022/02/08 08:56:05;;;;;;;;;;;7.70;99.90;;;;;;4984989;28;19910;-75
2022/02/08 08:58:31;;;;;;;;;;;7.70;99.90;;;;;;4986701;28;19979;-76
2022/02/08 09:00:59;;;;;;;;;;;7.70;99.90;;;;;;4978547;28;20527;-73
2022/02/08 09:03:25;;;;;;;;;;;7.70;99.90;;;;;;4981635;28;19916;-75
2022/02/08 09:05:52;;;;;;;;;;;7.70;99.90;;;;;;4980244;28;19913;-74
2022/02/08 09:08:18;;;;;;;;;;;7.70;99.90;;;;;;4983599;28;19917;-75
2022/02/08 09:10:57;;;;;;;;;;;7.80;99.90;;;;;;4989373;28;19915;-75
2022/02/08 09:13:30;;;;;;;;;;;7.80;99.90;;;;;;4988288;28;19989;-76
2022/02/08 09:16:09;;;;;;;;;;;7.90;99.90;;;;;;4986320;28;19925;-74
2022/02/08 09:26:51;;;;;;;;;;;8.00;99.90;;;;;;4984018;28;20013;-75
2022/02/08 09:29:40;;;;;;;;;;;8.00;99.90;;;;;;4984819;28;20080;-73
2022/02/08 09:33:06;;;;;;;;;;;8.00;99.90;;;;;;4966965;28;20372;-76
2022/02/08 09:35:00;;;;;;;;;;;8.00;99.90;;;;;;4968213;28;20021;-76
2022/02/08 09:37:27;;;;;;;;;;;8.10;99.90;;;;;;4985320;28;19917;-76
2022/02/08 09:39:53;;;;;;;;;;;8.10;99.90;;;;;;4977737;28;19910;-76
2022/02/08 09:42:19;;;;;;;;;;;8.10;99.90;;;;;;4981601;28;19979;-75
2022/02/08 09:44:44;;;;;;;;;;;8.10;99.90;;;;;;4985022;28;19929;-77
2022/02/08 09:47:15;;;;;;;;;;;8.10;99.90;;;;;;4990251;28;19914;-77
2022/02/08 09:49:50;;;;;;;;;;;8.10;99.90;;;;;;4993458;28;19917;-77
2022/02/08 09:52:17;;;;;;;;;;;8.10;99.90;;;;;;4992292;28;19906;-77
2022/02/08 09:54:43;;;;;;;;;;;8.10;99.90;;;;;;4986893;28;19913;-76
2022/02/08 09:57:11;;;;;;;;;;;8.10;99.90;;;;;;4993745;28;19952;-77
2022/02/08 09:59:37;;;;;;;;;;;8.20;99.90;;;;;;4987743;28;19914;-77
2022/02/08 10:02:03;;;;;;;;;;;8.20;99.90;;;;;;4989402;28;20707;-77
2022/02/08 10:04:29;;;;;;;;;;;8.20;99.90;;;;;;4985608;28;19910;-76
2022/02/08 10:06:55;;;;;;;;;;;8.20;99.90;;;;;;4983414;28;19910;-77
2022/02/08 10:09:29;;;;;;;;;;;8.20;99.90;;;;;;4989908;28;19914;-76
2022/02/08 10:11:57;;;;;;;;;;;8.20;99.90;;;;;;4985608;28;19937;-77
2022/02/08 10:14:27;;;;;;;;;;;8.20;99.90;;;;;;4992896;28;19909;-77
2022/02/08 10:20:23;;;;;;;;;;;8.20;99.90;;;;;;4988062;28;20568;-77
2022/02/08 10:22:32;;;;;;;;;;;8.20;99.90;;;;;;4989356;28;19913;-77
2022/02/08 10:25:03;;;;;;;;;;;8.20;99.90;;;;;;4992900;28;20357;-76
2022/02/08 10:30:15;;;;;;;;;;;8.20;99.90;;;;;;4988230;28;19978;-76
2022/02/08 10:38:15;;;;;;;;;;;8.20;99.90;;;;;;4987492;28;19923;-76
2022/02/08 10:40:42;;;;;;;;;;;8.20;99.90;;;;;;4987042;28;21801;-74
2022/02/08 10:43:12;;;;;;;;;;;8.30;99.90;;;;;;4982710;28;19917;-75
2022/02/08 10:45:38;;;;;;;;;;;8.30;99.90;;;;;;4978835;28;19910;-75
2022/02/08 10:48:06;;;;;;;;;;;8.30;99.90;;;;;;4981767;28;19910;-75
2022/02/08 10:50:33;;;;;;;;;;;8.30;99.90;;;;;;4981012;28;19964;-75
2022/02/08 10:53:00;;;;;;;;;;;8.30;99.90;;;;;;4976125;28;19921;-75
2022/02/08 11:00:39;;;;;;;;;;;8.30;99.90;;;;;;4983687;28;19913;-72
2022/02/08 11:03:10;;;;;;;;;;;8.30;99.90;;;;;;4985894;28;20644;-72
2022/02/08 11:05:51;;;;;;;;;;;8.30;99.90;;;;;;4988269;28;19910;-72
2022/02/08 11:08:30;;;;;;;;;;;8.30;99.90;;;;;;4985430;28;20006;-72
2022/02/08 11:11:06;;;;;;;;;;;8.30;99.90;;;;;;4986288;28;19992;-72
2022/02/08 11:13:55;;;;;;;;;;;8.30;99.90;;;;;;4990354;28;19914;-72
2022/02/08 11:16:27;;;;;;;;;;;8.30;99.90;;;;;;4988375;28;20327;-71
2022/02/08 11:19:46;;;;;;;;;;;8.30;99.90;;;;;;4994302;28;19996;-73
2022/02/08 11:21:50;;;;;;;;;;;8.30;99.90;;;;;;4974826;28;19910;-73
2022/02/08 11:24:27;;;;;;;;;;;8.30;99.90;;;;;;4990963;28;21242;-72
2022/02/08 11:27:00;;;;;;;;;;;8.30;99.90;;;;;;4989440;28;19916;-73
2022/02/08 11:32:04;;;;;;;;;;;8.30;99.90;;;;;;4987014;28;19917;-72
2022/02/08 11:44:04;;;;;;;;;;;8.40;99.90;;;;;;4983986;28;19913;-72
2022/02/08 11:49:14;;;;;;;;;;;8.40;99.90;;;;;;5006182;28;20359;-74
2022/02/08 11:57:39;;;;;;;;;;;8.40;99.90;;;;;;4928337;29;19914;-70
2022/02/08 12:00:11;;;;;;;;;;;8.40;99.90;;;;;;4926209;29;19910;-73
2022/02/08 12:02:52;;;;;;;;;;;8.40;99.90;;;;;;4907259;29;20369;-71
2022/02/08 12:06:09;;;;;;;;;;;8.40;99.90;;;;;;4910408;29;19947;-73
2022/02/08 12:08:11;;;;;;;;;;;8.40;99.90;;;;;;4917479;29;19998;-73
2022/02/08 12:10:43;;;;;;;;;;;8.40;99.90;;;;;;4925134;29;20002;-77
2022/02/08 12:35:15;;;;;;;;;;;8.50;99.90;;;;;;4985395;28;19913;-72
2022/02/08 12:54:32;;;;;;;;;;;8.50;99.90;;;;;;4983041;28;20509;-71
2022/02/08 12:57:13;;;;;;;;;;;8.40;99.90;;;;;;4982828;28;20395;-72
2022/02/08 12:59:58;;;;;;;;;;;8.40;99.90;;;;;;4992025;28;19953;-71
2022/02/08 15:09:03;;;;;;;;;;;8.70;99.90;;;;;;4991981;28;19917;-71
2022/02/08 15:11:43;;;;;;;;;;;8.70;99.90;;;;;;5003879;28;20374;-72
2022/02/08 15:14:09;;;;;;;;;;;8.70;99.90;;;;;;4991818;28;19905;-72
2022/02/08 15:16:36;;;;;;;;;;;8.60;99.90;;;;;;4991103;28;19976;-72
2022/02/08 15:19:02;;;;;;;;;;;8.60;99.90;;;;;;4987879;28;19917;-71
2022/02/08 15:21:33;;;;;;;;;;;8.60;99.90;;;;;;4965351;28;19922;-71
2022/02/08 15:24:01;;;;;;;;;;;8.60;99.90;;;;;;4993833;28;19909;-77
2022/02/08 15:26:27;;;;;;;;;;;8.60;99.90;;;;;;4985310;28;19909;-73
2022/02/08 15:28:54;;;;;;;;;;;8.60;99.90;;;;;;4985536;28;19964;-73
2022/02/08 15:31:19;;;;;;;;;;;8.60;99.90;;;;;;4984887;28;19914;-73
2022/02/08 15:33:45;;;;;;;;;;;8.60;99.90;;;;;;4986343;28;19925;-73
2022/02/08 15:36:15;;;;;;;;;;;8.50;99.90;;;;;;4990002;28;19924;-72
2022/02/08 15:38:50;;;;;;;;;;;8.60;99.90;;;;;;4987766;28;19918;-72
2022/02/08 15:41:17;;;;;;;;;;;8.60;99.90;;;;;;4983563;28;19910;-72
2022/02/08 15:43:42;;;;;;;;;;;8.60;99.90;;;;;;4986326;28;19929;-72
2022/02/08 15:46:18;;;;;;;;;;;8.60;99.90;;;;;;4985426;28;19914;-72
2022/02/08 15:48:46;;;;;;;;;;;8.50;99.90;;;;;;4986011;28;19917;-72
2022/02/08 15:51:30;;;;;;;;;;;8.60;99.90;;;;;;4987283;28;19953;-73
2022/02/08 15:56:33;;;;;;;;;;;8.60;99.90;;;;;;4979722;28;19910;-74
2022/02/08 16:07:05;;;;;;;;;;;8.50;99.90;;;;;;4981062;28;20304;-76
2022/02/08 16:49:32;;;;;;;;;;;8.40;99.90;;;;;;4982961;28;19922;-70
2022/02/08 16:52:42;;;;;;;;;;;8.30;99.90;;;;;;4984755;28;19913;-71
2022/02/08 16:55:31;;;;;;;;;;;8.40;99.90;;;;;;4986214;28;19918;-72
2022/02/08 17:00:35;;;;;;;;;;;8.30;99.90;;;;;;4983394;28;20002;-73
2022/02/08 17:03:05;;;;;;;;;;;8.30;99.90;;;;;;4984042;28;20303;-72
2022/02/08 17:05:31;;;;;;;;;;;8.30;99.90;;;;;;4983575;28;19920;-71
2022/02/08 17:07:57;;;;;;;;;;;8.30;99.90;;;;;;4987436;28;19976;-75
2022/02/08 17:10:36;;;;;;;;;;;8.30;99.90;;;;;;4987669;28;19918;-73
2022/02/08 17:13:50;;;;;;;;;;;8.20;99.90;;;;;;4982431;28;21511;-72
2022/02/08 17:16:13;;;;;;;;;;;8.20;99.90;;;;;;4987979;28;19959;-71
2022/02/08 17:19:12;;;;;;;;;;;8.20;99.90;;;;;;4989303;28;19910;-71
2022/02/08 17:34:36;;;;;;;;;;;8.20;99.90;;;;;;4993174;28;19913;-72
2022/02/08 17:36:58;;;;;;;;;;;8.20;99.90;;;;;;4985664;28;19953;-71
2022/02/08 17:47:01;;;;;;;;;;;8.20;99.90;;;;;;4986757;28;19917;-73
2022/02/08 17:49:26;;;;;;;;;;;8.20;99.90;;;;;;4985794;28;19910;-73
2022/02/08 17:51:52;;;;;;;;;;;8.20;99.90;;;;;;4985270;28;19961;-71
2022/02/08 17:54:19;;;;;;;;;;;8.20;99.90;;;;;;4983425;28;19936;-76
2022/02/08 17:56:45;;;;;;;;;;;8.10;99.90;;;;;;4986544;28;20284;-71
2022/02/08 17:59:11;;;;;;;;;;;8.20;99.90;;;;;;4990631;28;19910;-71
2022/02/08 18:01:36;;;;;;;;;;;8.10;99.90;;;;;;4993546;28;20438;-73
2022/02/08 18:04:02;;;;;;;;;;;8.10;99.90;;;;;;4985267;28;19910;-71
2022/02/08 18:06:28;;;;;;;;;;;8.20;99.90;;;;;;4989895;28;19956;-71
2022/02/08 18:08:54;;;;;;;;;;;8.20;99.90;;;;;;4988382;28;19972;-71
2022/02/08 18:11:23;;;;;;;;;;;8.20;99.90;;;;;;4988972;28;20015;-71
2022/02/08 18:13:50;;;;;;;;;;;8.10;99.90;;;;;;4990096;28;19909;-71
2022/02/08 18:16:20;;;;;;;;;;;8.20;99.90;;;;;;4990521;28;20427;-71
2022/02/08 18:18:46;;;;;;;;;;;8.20;99.90;;;;;;4991604;28;20287;-75
2022/02/08 18:21:26;;;;;;;;;;;8.20;99.90;;;;;;4990662;28;19906;-72
2022/02/08 19:07:20;;;;;;;;;;;8.20;99.90;;;;;;4973587;28;19961;-72
2022/02/08 19:09:56;;;;;;;;;;;8.20;99.90;;;;;;4972589;28;19917;-73
2022/02/08 19:20:08;;;;;;;;;;;8.30;99.90;;;;;;4972497;28;20364;-72
2022/02/08 19:22:34;;;;;;;;;;;8.30;99.90;;;;;;4973222;28;20553;-72
2022/02/08 19:24:59;;;;;;;;;;;8.30;99.90;;;;;;4974041;28;19910;-73
2022/02/08 19:27:25;;;;;;;;;;;8.30;99.90;;;;;;4952917;28;19910;-73
2022/02/08 19:29:51;;;;;;;;;;;8.30;99.90;;;;;;4975795;28;20491;-72
2022/02/08 19:32:16;;;;;;;;;;;8.30;99.90;;;;;;4969540;28;19957;-72
2022/02/08 19:34:45;;;;;;;;;;;8.30;99.90;;;;;;4973739;28;19906;-73
2022/02/08 19:37:12;;;;;;;;;;;8.30;99.90;;;;;;4964128;28;19976;-73
2022/02/08 19:39:39;;;;;;;;;;;8.30;99.90;;;;;;4969022;28;19953;-73
2022/02/08 19:42:06;;;;;;;;;;;8.30;99.90;;;;;;4956874;28;20303;-73
2022/02/08 19:44:32;;;;;;;;;;;8.30;99.90;;;;;;4972698;28;19969;-73
2022/02/08 19:46:59;;;;;;;;;;;8.30;99.90;;;;;;4971005;28;19910;-72
2022/02/08 19:49:27;;;;;;;;;;;8.30;99.90;;;;;;4974600;28;19949;-72
2022/02/08 19:51:53;;;;;;;;;;;8.40;99.90;;;;;;4967051;28;19909;-72
2022/02/08 19:54:24;;;;;;;;;;;8.30;99.90;;;;;;4961900;28;19907;-73
2022/02/08 19:57:05;;;;;;;;;;;8.30;99.90;;;;;;4968489;28;19910;-73
2022/02/08 19:59:36;;;;;;;;;;;8.40;99.90;;;;;;4970855;28;20061;-73
2022/02/08 20:02:05;;;;;;;;;;;8.30;99.90;;;;;;4959870;28;19910;-73
2022/02/08 20:04:33;;;;;;;;;;;8.40;99.90;;;;;;4966480;28;19953;-74
2022/02/08 20:06:58;;;;;;;;;;;8.40;99.90;;;;;;4966584;28;19910;-73
2022/02/08 20:09:24;;;;;;;;;;;8.40;99.90;;;;;;4986763;28;19917;-74
2022/02/08 20:11:50;;;;;;;;;;;8.40;99.90;;;;;;4974365;28;19914;-73
2022/02/08 20:14:17;;;;;;;;;;;8.40;99.90;;;;;;4969207;28;19918;-74
2022/02/08 20:16:44;;;;;;;;;;;8.40;99.90;;;;;;4967810;28;20021;-73
2022/02/08 20:19:10;;;;;;;;;;;8.40;99.90;;;;;;4968544;28;19949;-73
2022/02/08 20:21:37;;;;;;;;;;;8.40;99.90;;;;;;4971881;28;19918;-73
2022/02/08 20:24:05;;;;;;;;;;;8.40;99.90;;;;;;4964693;28;19914;-74
2022/02/08 20:29:09;;;;;;;;;;;8.40;99.90;;;;;;4970980;28;19910;-74
2022/02/08 20:31:34;;;;;;;;;;;8.50;99.90;;;;;;4969550;28;20376;-73
2022/02/08 20:34:00;;;;;;;;;;;8.50;99.90;;;;;;4971412;28;20016;-73
2022/02/08 20:36:25;;;;;;;;;;;8.50;99.90;;;;;;4978691;28;19910;-73
2022/02/08 20:38:51;;;;;;;;;;;8.40;99.90;;;;;;4979531;28;19914;-73
2022/02/08 20:41:20;;;;;;;;;;;8.50;99.90;;;;;;4973178;28;19926;-73
2022/02/08 20:43:46;;;;;;;;;;;8.50;99.90;;;;;;4948175;28;19922;-73
2022/02/08 20:46:14;;;;;;;;;;;8.50;99.90;;;;;;4967065;28;19918;-73
2022/02/08 20:48:40;;;;;;;;;;;8.50;99.90;;;;;;4967875;28;19910;-73
2022/02/08 20:51:06;;;;;;;;;;;8.50;99.90;;;;;;4963195;28;19914;-73
2022/02/08 20:56:14;;;;;;;;;;;8.60;99.90;;;;;;4968970;28;20032;-73
2022/02/08 20:59:13;;;;;;;;;;;8.50;99.90;;;;;;4967327;28;20503;-72
2022/02/08 21:01:34;;;;;;;;;;;8.50;99.90;;;;;;4966808;28;19997;-73
2022/02/08 21:04:03;;;;;;;;;;;8.50;99.90;;;;;;4966828;28;19933;-73
2022/02/08 21:06:32;;;;;;;;;;;8.50;99.90;;;;;;4965148;28;20291;-73
2022/02/08 21:08:59;;;;;;;;;;;8.60;99.90;;;;;;4967080;28;19910;-72
2022/02/08 21:11:33;;;;;;;;;;;8.50;99.90;;;;;;4971355;28;19921;-72
2022/02/08 21:14:05;;;;;;;;;;;8.60;99.90;;;;;;4968955;28;20305;-73
2022/02/08 21:16:41;;;;;;;;;;;8.60;99.90;;;;;;4966279;28;19925;-72
2022/02/08 21:19:07;;;;;;;;;;;8.60;99.90;;;;;;4962876;28;19910;-73
2022/02/08 21:21:33;;;;;;;;;;;8.60;99.90;;;;;;4964065;28;19996;-73
2022/02/08 21:23:59;;;;;;;;;;;8.60;99.90;;;;;;4965439;28;19914;-73
2022/02/08 21:26:51;;;;;;;;;;;8.60;99.90;;;;;;4974679;28;19914;-74
2022/02/08 21:52:27;;;;;;;;;;;8.60;99.90;;;;;;4898098;29;19923;-73
2022/02/08 21:54:31;;;;;;;;;;;8.60;99.90;;;;;;4919801;29;19982;-73
2022/02/08 21:56:58;;;;;;;;;;;8.60;99.90;;;;;;4931541;29;19922;-79
2022/02/08 21:59:25;;;;;;;;;;;8.60;99.90;;;;;;4911414;29;20425;-85
2022/02/08 22:01:50;;;;;;;;;;;8.60;99.90;;;;;;4894450;29;19921;-77
2022/02/08 22:04:16;;;;;;;;;;;8.60;99.90;;;;;;4932907;29;20375;-77
2022/02/08 22:06:44;;;;;;;;;;;8.60;99.90;;;;;;4917337;29;19910;-77
2022/02/08 22:09:14;;;;;;;;;;;8.60;99.90;;;;;;4897768;29;19962;-77
2022/02/08 22:22:42;;;;;;;;;;;8.60;99.90;;;;;;4953535;28;19918;-74
2022/02/08 22:33:03;;;;;;;;;;;8.70;99.90;;;;;;4967567;28;19910;-74
2022/02/08 22:35:36;;;;;;;;;;;8.70;99.90;;;;;;4972493;28;19929;-74
2022/02/08 22:40:39;;;;;;;;;;;8.70;99.90;;;;;;4969401;28;20072;-74
2022/02/08 22:43:10;;;;;;;;;;;8.70;99.90;;;;;;4979856;28;19910;-74
2022/02/08 22:45:36;;;;;;;;;;;8.70;99.90;;;;;;4968875;28;19917;-74
2022/02/08 22:48:03;;;;;;;;;;;8.70;99.90;;;;;;4986396;28;19910;-74
2022/02/08 22:50:28;;;;;;;;;;;8.70;99.90;;;;;;4973280;28;20001;-74
2022/02/08 22:52:54;;;;;;;;;;;8.70;99.90;;;;;;4950071;28;19949;-74
2022/02/08 22:55:23;;;;;;;;;;;8.70;99.90;;;;;;4972584;28;19918;-74